sensor_id;sensor_type;location;lat;lon;timestamp;temperature;humidity
16732;DHT22;8484;50.904;9.192;2022-09-09T00:01:27;15.70;99.90
16732;DHT22;8484;50.904;9.192;2022-09-09T00:04:02;15.70;99.90
16732;DHT22;8484;50.904;9.192;2022-09-09T00:06:32;15.70;99.90
16732;DHT22;8484;50.904;9.192;2022-09-09T00:09:06;15.70;99.90
16732;DHT22;8484;50.904;9.192;2022-09-09T00:11:40;15.60;99.90
16732;DHT22;8484;50.904;9.192;2022-09-09T00:14:14;15.60;99.90
16732;DHT22;8484;50.904;9.192;2022-09-09T00:16:47;15.60;99.90
16732;DHT22;8484;50.904;9.192;2022-09-09T00:19:22;15.70;99.90
16732;DHT22;8484;50.904;9.192;2022-09-09T00:21:57;15.60;99.90
16732;DHT22;8484;50.904;9.192;2022-09-09T00:24:29;15.70;99.90
16732;DHT22;8484;50.904;9.192;2022-09-09T00:27:04;15.50;99.90
16732;DHT22;8484;50.904;9.192;2022-09-09T00:29:38;15.50;99.90
16732;DHT22;8484;50.904;9.192;2022-09-09T00:32:12;15.50;99.90
16732;DHT22;8484;50.904;9.192;2022-09-09T00:34:46;15.50;99.90
16732;DHT22;8484;50.904;9.192;2022-09-09T00:37:14;15.50;99.90
16732;DHT22;8484;50.904;9.192;2022-09-09T00:39:42;15.80;99.90
16732;DHT22;8484;50.904;9.192;2022-09-09T00:42:15;15.50;99.90
16732;DHT22;8484;50.904;9.192;2022-09-09T00:44:54;15.60;99.90
16732;DHT22;8484;50.904;9.192;2022-09-09T00:47:43;15.70;99.90
16732;DHT22;8484;50.904;9.192;2022-09-09T00:50:23;15.80;99.90
16732;DHT22;8484;50.904;9.192;2022-09-09T00:53:02;15.90;99.90
16732;DHT22;8484;50.904;9.192;2022-09-09T00:55:39;15.80;99.90
16732;DHT22;8484;50.904;9.192;2022-09-09T00:58:08;15.60;99.90
16732;DHT22;8484;50.904;9.192;2022-09-09T01:00:41;15.50;99.90
16732;DHT22;8484;50.904;9.192;2022-09-09T01:03:24;15.30;99.90
16732;DHT22;8484;50.904;9.192;2022-09-09T01:06:01;15.30;99.90
16732;DHT22;8484;50.904;9.192;2022-09-09T01:08:45;15.30;99.90
16732;DHT22;8484;50.904;9.192;2022-09-09T01:11:20;15.20;99.90
16732;DHT22;8484;50.904;9.192;2022-09-09T01:13:53;15.40;99.90
16732;DHT22;8484;50.904;9.192;2022-09-09T01:16:25;15.30;99.90
16732;DHT22;8484;50.904;9.192;2022-09-09T01:18:53;15.30;99.90
16732;DHT22;8484;50.904;9.192;2022-09-09T01:21:30;15.30;99.90
16732;DHT22;8484;50.904;9.192;2022-09-09T01:24:20;15.20;99.90
16732;DHT22;8484;50.904;9.192;2022-09-09T01:26:52;15.20;99.90
16732;DHT22;8484;50.904;9.192;2022-09-09T01:29:21;15.10;99.90
16732;DHT22;8484;50.904;9.192;2022-09-09T01:31:54;15.00;99.90
16732;DHT22;8484;50.904;9.192;2022-09-09T01:34:22;15.20;99.90
16732;DHT22;8484;50.904;9.192;2022-09-09T01:36:53;15.40;99.90
16732;DHT22;8484;50.904;9.192;2022-09-09T01:39:24;15.10;99.90
16732;DHT22;8484;50.904;9.192;2022-09-09T01:41:52;15.20;99.90
16732;DHT22;8484;50.904;9.192;2022-09-09T01:44:20;15.30;99.90
16732;DHT22;8484;50.904;9.192;2022-09-09T01:46:47;15.10;99.90
16732;DHT22;8484;50.904;9.192;2022-09-09T01:49:14;14.90;99.90
16732;DHT22;8484;50.904;9.192;2022-09-09T01:51:42;15.20;99.90
16732;DHT22;8484;50.904;9.192;2022-09-09T01:54:10;15.00;99.90
16732;DHT22;8484;50.904;9.192;2022-09-09T01:56:43;14.90;99.90
16732;DHT22;8484;50.904;9.192;2022-09-09T01:59:24;15.00;99.90
16732;DHT22;8484;50.904;9.192;2022-09-09T02:02:03;15.10;99.90
16732;DHT22;8484;50.904;9.192;2022-09-09T02:04:38;15.00;99.90
16732;DHT22;8484;50.904;9.192;2022-09-09T02:09:59;14.90;99.90
16732;DHT22;8484;50.904;9.192;2022-09-09T02:12:28;14.60;99.90
16732;DHT22;8484;50.904;9.192;2022-09-09T02:15:03;14.70;99.90
16732;DHT22;8484;50.904;9.192;2022-09-09T02:17:34;14.70;99.90
16732;DHT22;8484;50.904;9.192;2022-09-09T02:20:06;14.50;99.90
16732;DHT22;8484;50.904;9.192;2022-09-09T02:22:35;14.50;99.90
16732;DHT22;8484;50.904;9.192;2022-09-09T02:25:07;14.50;99.90
16732;DHT22;8484;50.904;9.192;2022-09-09T02:27:35;14.40;99.90
16732;DHT22;8484;50.904;9.192;2022-09-09T02:30:04;14.40;99.90
16732;DHT22;8484;50.904;9.192;2022-09-09T02:32:33;14.30;99.90
16732;DHT22;8484;50.904;9.192;2022-09-09T02:35:05;14.30;99.90
16732;DHT22;8484;50.904;9.192;2022-09-09T02:37:37;14.30;99.90
16732;DHT22;8484;50.904;9.192;2022-09-09T02:40:06;14.40;99.90
16732;DHT22;8484;50.904;9.192;2022-09-09T02:42:39;14.40;99.90
16732;DHT22;8484;50.904;9.192;2022-09-09T02:45:09;14.50;99.90
16732;DHT22;8484;50.904;9.192;2022-09-09T02:47:39;14.60;99.90
16732;DHT22;8484;50.904;9.192;2022-09-09T02:50:12;14.50;99.90
16732;DHT22;8484;50.904;9.192;2022-09-09T02:52:50;14.60;99.90
16732;DHT22;8484;50.904;9.192;2022-09-09T02:55:24;14.30;99.90
16732;DHT22;8484;50.904;9.192;2022-09-09T02:57:53;14.50;99.90
16732;DHT22;8484;50.904;9.192;2022-09-09T03:00:26;14.50;99.90
16732;DHT22;8484;50.904;9.192;2022-09-09T03:02:55;14.50;99.90
16732;DHT22;8484;50.904;9.192;2022-09-09T03:05:23;14.60;99.90
16732;DHT22;8484;50.904;9.192;2022-09-09T03:07:50;14.80;99.90
16732;DHT22;8484;50.904;9.192;2022-09-09T03:10:17;14.50;99.90
16732;DHT22;8484;50.904;9.192;2022-09-09T03:12:44;14.50;99.90
16732;DHT22;8484;50.904;9.192;2022-09-09T03:15:11;14.40;99.90
16732;DHT22;8484;50.904;9.192;2022-09-09T03:17:40;14.40;99.90
16732;DHT22;8484;50.904;9.192;2022-09-09T03:20:07;14.60;99.90
16732;DHT22;8484;50.904;9.192;2022-09-09T03:22:35;14.50;99.90
16732;DHT22;8484;50.904;9.192;2022-09-09T03:25:02;14.50;99.90
16732;DHT22;8484;50.904;9.192;2022-09-09T03:27:30;14.40;99.90
16732;DHT22;8484;50.904;9.192;2022-09-09T03:29:58;14.20;99.90
16732;DHT22;8484;50.904;9.192;2022-09-09T03:32:28;14.10;99.90
16732;DHT22;8484;50.904;9.192;2022-09-09T03:34:56;14.20;99.90
16732;DHT22;8484;50.904;9.192;2022-09-09T03:37:23;13.90;99.90
16732;DHT22;8484;50.904;9.192;2022-09-09T03:39:50;14.00;99.90
16732;DHT22;8484;50.904;9.192;2022-09-09T03:42:20;14.00;99.90
16732;DHT22;8484;50.904;9.192;2022-09-09T03:44:47;14.00;99.90
16732;DHT22;8484;50.904;9.192;2022-09-09T03:47:15;14.10;99.90
16732;DHT22;8484;50.904;9.192;2022-09-09T03:49:42;14.10;99.90
16732;DHT22;8484;50.904;9.192;2022-09-09T03:52:11;14.00;99.90
16732;DHT22;8484;50.904;9.192;2022-09-09T03:54:38;13.90;99.90
16732;DHT22;8484;50.904;9.192;2022-09-09T03:57:04;13.80;99.90
16732;DHT22;8484;50.904;9.192;2022-09-09T03:59:31;13.80;99.90
16732;DHT22;8484;50.904;9.192;2022-09-09T04:01:58;13.80;99.90
16732;DHT22;8484;50.904;9.192;2022-09-09T04:04:25;13.70;99.90
16732;DHT22;8484;50.904;9.192;2022-09-09T04:06:53;13.60;99.90
16732;DHT22;8484;50.904;9.192;2022-09-09T04:09:21;13.60;99.90
16732;DHT22;8484;50.904;9.192;2022-09-09T04:11:48;13.70;99.90
16732;DHT22;8484;50.904;9.192;2022-09-09T04:14:16;13.70;99.90
16732;DHT22;8484;50.904;9.192;2022-09-09T04:16:42;13.60;99.90
16732;DHT22;8484;50.904;9.192;2022-09-09T04:19:10;13.50;99.90
16732;DHT22;8484;50.904;9.192;2022-09-09T04:21:39;13.50;99.90
16732;DHT22;8484;50.904;9.192;2022-09-09T04:24:06;13.60;99.90
16732;DHT22;8484;50.904;9.192;2022-09-09T04:26:35;13.60;99.90
16732;DHT22;8484;50.904;9.192;2022-09-09T04:29:03;13.80;99.90
16732;DHT22;8484;50.904;9.192;2022-09-09T04:31:30;13.70;99.90
16732;DHT22;8484;50.904;9.192;2022-09-09T04:33:57;13.70;99.90
16732;DHT22;8484;50.904;9.192;2022-09-09T04:36:24;13.60;99.90
16732;DHT22;8484;50.904;9.192;2022-09-09T04:38:51;13.80;99.90
16732;DHT22;8484;50.904;9.192;2022-09-09T04:41:18;13.80;99.90
16732;DHT22;8484;50.904;9.192;2022-09-09T04:43:46;13.70;99.90
16732;DHT22;8484;50.904;9.192;2022-09-09T04:46:13;13.60;99.90
16732;DHT22;8484;50.904;9.192;2022-09-09T04:48:42;13.60;99.90
16732;DHT22;8484;50.904;9.192;2022-09-09T04:51:12;13.60;99.90
16732;DHT22;8484;50.904;9.192;2022-09-09T04:53:39;13.70;99.90
16732;DHT22;8484;50.904;9.192;2022-09-09T04:56:11;13.50;99.90
16732;DHT22;8484;50.904;9.192;2022-09-09T04:58:38;13.80;99.90
16732;DHT22;8484;50.904;9.192;2022-09-09T05:01:13;13.50;99.90
16732;DHT22;8484;50.904;9.192;2022-09-09T05:03:40;13.50;99.90
16732;DHT22;8484;50.904;9.192;2022-09-09T05:06:08;13.50;99.90
16732;DHT22;8484;50.904;9.192;2022-09-09T05:08:36;13.40;99.90
16732;DHT22;8484;50.904;9.192;2022-09-09T05:11:04;13.60;99.90
16732;DHT22;8484;50.904;9.192;2022-09-09T05:13:31;13.70;99.90
16732;DHT22;8484;50.904;9.192;2022-09-09T05:15:58;13.90;99.90
16732;DHT22;8484;50.904;9.192;2022-09-09T05:18:26;13.70;99.90
16732;DHT22;8484;50.904;9.192;2022-09-09T05:20:58;13.70;99.90
16732;DHT22;8484;50.904;9.192;2022-09-09T05:23:26;13.40;99.90
16732;DHT22;8484;50.904;9.192;2022-09-09T05:25:56;13.40;99.90
16732;DHT22;8484;50.904;9.192;2022-09-09T05:28:24;13.50;99.90
16732;DHT22;8484;50.904;9.192;2022-09-09T05:30:58;13.60;99.90
16732;DHT22;8484;50.904;9.192;2022-09-09T05:33:27;13.70;99.90
16732;DHT22;8484;50.904;9.192;2022-09-09T05:35:58;13.80;99.90
16732;DHT22;8484;50.904;9.192;2022-09-09T05:38:25;14.00;99.90
16732;DHT22;8484;50.904;9.192;2022-09-09T05:40:52;14.10;99.90
16732;DHT22;8484;50.904;9.192;2022-09-09T05:43:20;14.20;99.90
16732;DHT22;8484;50.904;9.192;2022-09-09T05:45:47;14.30;99.90
16732;DHT22;8484;50.904;9.192;2022-09-09T05:48:14;14.40;99.90
16732;DHT22;8484;50.904;9.192;2022-09-09T05:50:43;14.40;99.90
16732;DHT22;8484;50.904;9.192;2022-09-09T05:53:10;14.60;99.90
16732;DHT22;8484;50.904;9.192;2022-09-09T05:55:37;14.80;99.90
16732;DHT22;8484;50.904;9.192;2022-09-09T05:58:04;14.90;99.90
16732;DHT22;8484;50.904;9.192;2022-09-09T06:00:31;14.70;99.90
16732;DHT22;8484;50.904;9.192;2022-09-09T06:02:58;15.00;99.90
16732;DHT22;8484;50.904;9.192;2022-09-09T06:05:25;15.60;99.90
16732;DHT22;8484;50.904;9.192;2022-09-09T06:07:55;15.90;99.90
16732;DHT22;8484;50.904;9.192;2022-09-09T06:10:22;16.20;99.90
16732;DHT22;8484;50.904;9.192;2022-09-09T06:12:52;15.80;99.90
16732;DHT22;8484;50.904;9.192;2022-09-09T06:15:19;15.80;99.90
16732;DHT22;8484;50.904;9.192;2022-09-09T06:17:46;16.20;99.90
16732;DHT22;8484;50.904;9.192;2022-09-09T06:20:14;16.00;99.90
16732;DHT22;8484;50.904;9.192;2022-09-09T06:22:41;16.30;99.90
16732;DHT22;8484;50.904;9.192;2022-09-09T06:25:10;16.20;99.90
16732;DHT22;8484;50.904;9.192;2022-09-09T06:27:38;16.40;99.90
16732;DHT22;8484;50.904;9.192;2022-09-09T06:30:05;15.90;99.90
16732;DHT22;8484;50.904;9.192;2022-09-09T06:32:33;15.90;99.90
16732;DHT22;8484;50.904;9.192;2022-09-09T06:35:02;16.00;99.90
16732;DHT22;8484;50.904;9.192;2022-09-09T06:37:29;16.10;99.90
16732;DHT22;8484;50.904;9.192;2022-09-09T06:39:56;16.30;99.90
16732;DHT22;8484;50.904;9.192;2022-09-09T06:42:24;16.50;99.90
16732;DHT22;8484;50.904;9.192;2022-09-09T06:44:51;16.50;99.90
16732;DHT22;8484;50.904;9.192;2022-09-09T06:47:18;16.60;99.90
16732;DHT22;8484;50.904;9.192;2022-09-09T06:49:45;17.00;99.90
16732;DHT22;8484;50.904;9.192;2022-09-09T06:52:12;16.50;99.90
16732;DHT22;8484;50.904;9.192;2022-09-09T06:54:42;16.90;99.90
16732;DHT22;8484;50.904;9.192;2022-09-09T06:57:10;16.70;99.90
16732;DHT22;8484;50.904;9.192;2022-09-09T06:59:38;16.70;99.90
16732;DHT22;8484;50.904;9.192;2022-09-09T07:02:07;16.70;99.90
16732;DHT22;8484;50.904;9.192;2022-09-09T07:04:34;16.70;99.90
16732;DHT22;8484;50.904;9.192;2022-09-09T07:07:01;16.80;99.90
16732;DHT22;8484;50.904;9.192;2022-09-09T07:09:28;16.60;99.90
16732;DHT22;8484;50.904;9.192;2022-09-09T07:11:55;16.60;99.90
16732;DHT22;8484;50.904;9.192;2022-09-09T07:14:24;16.50;99.90
16732;DHT22;8484;50.904;9.192;2022-09-09T07:16:53;16.50;99.90
16732;DHT22;8484;50.904;9.192;2022-09-09T07:19:21;16.50;99.90
16732;DHT22;8484;50.904;9.192;2022-09-09T07:21:49;16.50;99.90
16732;DHT22;8484;50.904;9.192;2022-09-09T07:24:17;16.70;99.90
16732;DHT22;8484;50.904;9.192;2022-09-09T07:26:44;16.50;99.90
16732;DHT22;8484;50.904;9.192;2022-09-09T07:29:11;16.50;99.90
16732;DHT22;8484;50.904;9.192;2022-09-09T07:31:41;16.70;99.90
16732;DHT22;8484;50.904;9.192;2022-09-09T07:34:19;16.80;99.90
16732;DHT22;8484;50.904;9.192;2022-09-09T07:36:46;16.70;99.90
16732;DHT22;8484;50.904;9.192;2022-09-09T07:39:14;16.80;99.90
16732;DHT22;8484;50.904;9.192;2022-09-09T07:41:44;16.80;99.90
16732;DHT22;8484;50.904;9.192;2022-09-09T07:44:13;16.70;99.90
16732;DHT22;8484;50.904;9.192;2022-09-09T07:46:41;16.80;99.90
16732;DHT22;8484;50.904;9.192;2022-09-09T07:49:08;16.80;99.90
16732;DHT22;8484;50.904;9.192;2022-09-09T07:51:39;17.40;99.90
16732;DHT22;8484;50.904;9.192;2022-09-09T07:54:09;17.60;99.90
16732;DHT22;8484;50.904;9.192;2022-09-09T07:56:37;17.50;99.90
16732;DHT22;8484;50.904;9.192;2022-09-09T07:59:04;17.60;99.90
16732;DHT22;8484;50.904;9.192;2022-09-09T08:01:33;17.60;99.90
16732;DHT22;8484;50.904;9.192;2022-09-09T08:04:04;17.90;99.90
16732;DHT22;8484;50.904;9.192;2022-09-09T08:06:35;17.90;99.90
16732;DHT22;8484;50.904;9.192;2022-09-09T08:09:04;17.90;99.90
16732;DHT22;8484;50.904;9.192;2022-09-09T08:11:32;18.10;99.90
16732;DHT22;8484;50.904;9.192;2022-09-09T08:14:00;18.30;99.90
16732;DHT22;8484;50.904;9.192;2022-09-09T08:16:28;18.20;99.90
16732;DHT22;8484;50.904;9.192;2022-09-09T08:18:56;18.00;99.90
16732;DHT22;8484;50.904;9.192;2022-09-09T08:21:25;19.00;99.90
16732;DHT22;8484;50.904;9.192;2022-09-09T08:23:55;19.40;99.90
16732;DHT22;8484;50.904;9.192;2022-09-09T08:26:25;19.00;99.90
16732;DHT22;8484;50.904;9.192;2022-09-09T08:29:04;19.60;99.90
16732;DHT22;8484;50.904;9.192;2022-09-09T08:31:33;20.00;99.90
16732;DHT22;8484;50.904;9.192;2022-09-09T08:34:01;20.30;99.90
16732;DHT22;8484;50.904;9.192;2022-09-09T08:36:43;20.40;99.90
16732;DHT22;8484;50.904;9.192;2022-09-09T08:39:25;19.50;99.90
16732;DHT22;8484;50.904;9.192;2022-09-09T08:42:15;19.20;99.90
16732;DHT22;8484;50.904;9.192;2022-09-09T08:45:00;19.50;99.90
16732;DHT22;8484;50.904;9.192;2022-09-09T08:47:38;19.80;99.90
16732;DHT22;8484;50.904;9.192;2022-09-09T08:50:18;20.10;99.90
16732;DHT22;8484;50.904;9.192;2022-09-09T08:52:53;20.40;99.90
16732;DHT22;8484;50.904;9.192;2022-09-09T08:55:25;19.70;99.90
16732;DHT22;8484;50.904;9.192;2022-09-09T08:57:57;19.30;99.90
16732;DHT22;8484;50.904;9.192;2022-09-09T09:00:35;20.10;99.90
16732;DHT22;8484;50.904;9.192;2022-09-09T09:03:14;20.80;99.90
16732;DHT22;8484;50.904;9.192;2022-09-09T09:05:49;21.30;99.90
16732;DHT22;8484;50.904;9.192;2022-09-09T09:08:23;21.30;99.90
16732;DHT22;8484;50.904;9.192;2022-09-09T09:10:54;21.10;99.90
16732;DHT22;8484;50.904;9.192;2022-09-09T09:13:30;21.00;99.90
16732;DHT22;8484;50.904;9.192;2022-09-09T09:16:03;21.10;99.90
16732;DHT22;8484;50.904;9.192;2022-09-09T09:18:33;21.10;99.90
16732;DHT22;8484;50.904;9.192;2022-09-09T09:21:05;21.50;99.90
16732;DHT22;8484;50.904;9.192;2022-09-09T09:23:40;21.90;99.90
16732;DHT22;8484;50.904;9.192;2022-09-09T09:26:10;22.00;99.90
16732;DHT22;8484;50.904;9.192;2022-09-09T09:28:40;21.20;99.90
16732;DHT22;8484;50.904;9.192;2022-09-09T09:31:09;21.60;99.90
16732;DHT22;8484;50.904;9.192;2022-09-09T09:33:45;21.90;99.90
16732;DHT22;8484;50.904;9.192;2022-09-09T09:36:14;21.80;99.90
16732;DHT22;8484;50.904;9.192;2022-09-09T09:38:52;21.30;99.90
16732;DHT22;8484;50.904;9.192;2022-09-09T09:41:29;21.30;99.90
16732;DHT22;8484;50.904;9.192;2022-09-09T09:43:58;21.20;99.90
16732;DHT22;8484;50.904;9.192;2022-09-09T09:46:26;20.70;99.90
16732;DHT22;8484;50.904;9.192;2022-09-09T09:48:56;20.50;99.90
16732;DHT22;8484;50.904;9.192;2022-09-09T09:51:24;20.80;99.90
16732;DHT22;8484;50.904;9.192;2022-09-09T09:53:51;20.70;99.90
16732;DHT22;8484;50.904;9.192;2022-09-09T09:56:26;21.30;99.90
16732;DHT22;8484;50.904;9.192;2022-09-09T09:58:55;21.10;99.90
16732;DHT22;8484;50.904;9.192;2022-09-09T10:01:25;20.70;99.90
16732;DHT22;8484;50.904;9.192;2022-09-09T10:03:54;22.10;99.90
16732;DHT22;8484;50.904;9.192;2022-09-09T10:06:31;21.80;99.90
16732;DHT22;8484;50.904;9.192;2022-09-09T10:08:59;21.90;99.90
16732;DHT22;8484;50.904;9.192;2022-09-09T10:11:38;21.40;99.90
16732;DHT22;8484;50.904;9.192;2022-09-09T10:14:16;21.50;99.90
16732;DHT22;8484;50.904;9.192;2022-09-09T10:16:59;21.00;99.90
16732;DHT22;8484;50.904;9.192;2022-09-09T10:19:30;20.60;99.90
16732;DHT22;8484;50.904;9.192;2022-09-09T10:22:20;20.40;99.90
16732;DHT22;8484;50.904;9.192;2022-09-09T10:25:16;20.90;99.90
16732;DHT22;8484;50.904;9.192;2022-09-09T10:27:54;21.70;99.90
16732;DHT22;8484;50.904;9.192;2022-09-09T10:30:26;21.00;99.90
16732;DHT22;8484;50.904;9.192;2022-09-09T10:33:04;21.20;99.90
16732;DHT22;8484;50.904;9.192;2022-09-09T10:35:35;22.10;99.90
16732;DHT22;8484;50.904;9.192;2022-09-09T10:38:17;21.20;99.90
16732;DHT22;8484;50.904;9.192;2022-09-09T10:40:59;21.00;99.90
16732;DHT22;8484;50.904;9.192;2022-09-09T10:43:45;20.80;99.90
16732;DHT22;8484;50.904;9.192;2022-09-09T10:46:18;20.50;99.90
16732;DHT22;8484;50.904;9.192;2022-09-09T10:49:03;20.30;99.90
16732;DHT22;8484;50.904;9.192;2022-09-09T10:51:38;20.30;99.90
16732;DHT22;8484;50.904;9.192;2022-09-09T10:54:17;21.00;99.90
16732;DHT22;8484;50.904;9.192;2022-09-09T10:56:52;22.40;99.90
16732;DHT22;8484;50.904;9.192;2022-09-09T10:59:26;23.40;99.90
16732;DHT22;8484;50.904;9.192;2022-09-09T11:01:57;23.70;99.90
16732;DHT22;8484;50.904;9.192;2022-09-09T11:04:30;23.20;99.90
16732;DHT22;8484;50.904;9.192;2022-09-09T11:07:05;22.30;99.90
16732;DHT22;8484;50.904;9.192;2022-09-09T11:09:36;21.30;99.90
16732;DHT22;8484;50.904;9.192;2022-09-09T11:12:05;20.70;99.90
16732;DHT22;8484;50.904;9.192;2022-09-09T11:14:41;20.20;99.90
16732;DHT22;8484;50.904;9.192;2022-09-09T11:17:13;20.00;99.90
16732;DHT22;8484;50.904;9.192;2022-09-09T11:19:44;21.40;99.90
16732;DHT22;8484;50.904;9.192;2022-09-09T11:22:17;22.60;99.90
16732;DHT22;8484;50.904;9.192;2022-09-09T11:24:47;22.70;99.90
16732;DHT22;8484;50.904;9.192;2022-09-09T11:27:21;23.10;99.90
16732;DHT22;8484;50.904;9.192;2022-09-09T11:30:17;23.20;99.90
16732;DHT22;8484;50.904;9.192;2022-09-09T11:33:08;23.60;99.90
16732;DHT22;8484;50.904;9.192;2022-09-09T11:35:48;23.30;99.90
16732;DHT22;8484;50.904;9.192;2022-09-09T11:38:25;23.10;99.90
16732;DHT22;8484;50.904;9.192;2022-09-09T11:40:58;23.80;99.90
16732;DHT22;8484;50.904;9.192;2022-09-09T11:43:29;23.60;99.30
16732;DHT22;8484;50.904;9.192;2022-09-09T11:45:59;23.10;99.90
16732;DHT22;8484;50.904;9.192;2022-09-09T11:48:38;24.10;98.70
16732;DHT22;8484;50.904;9.192;2022-09-09T11:51:26;23.20;98.50
16732;DHT22;8484;50.904;9.192;2022-09-09T11:53:56;23.50;99.20
16732;DHT22;8484;50.904;9.192;2022-09-09T11:56:26;23.60;99.70
16732;DHT22;8484;50.904;9.192;2022-09-09T11:58:55;23.90;99.20
16732;DHT22;8484;50.904;9.192;2022-09-09T12:01:36;23.60;99.00
16732;DHT22;8484;50.904;9.192;2022-09-09T12:04:28;24.10;99.20
16732;DHT22;8484;50.904;9.192;2022-09-09T12:06:59;23.10;98.90
16732;DHT22;8484;50.904;9.192;2022-09-09T12:09:43;23.10;99.90
16732;DHT22;8484;50.904;9.192;2022-09-09T12:12:26;22.80;99.90
16732;DHT22;8484;50.904;9.192;2022-09-09T12:14:59;22.80;99.90
16732;DHT22;8484;50.904;9.192;2022-09-09T12:17:28;23.50;99.90
16732;DHT22;8484;50.904;9.192;2022-09-09T12:20:01;23.50;99.90
16732;DHT22;8484;50.904;9.192;2022-09-09T12:22:37;23.20;99.20
16732;DHT22;8484;50.904;9.192;2022-09-09T12:25:16;22.50;99.90
16732;DHT22;8484;50.904;9.192;2022-09-09T12:27:53;22.70;99.90
16732;DHT22;8484;50.904;9.192;2022-09-09T12:30:28;22.70;99.90
16732;DHT22;8484;50.904;9.192;2022-09-09T12:33:01;23.00;99.90
16732;DHT22;8484;50.904;9.192;2022-09-09T12:35:28;23.30;99.90
16732;DHT22;8484;50.904;9.192;2022-09-09T12:37:59;23.60;99.90
16732;DHT22;8484;50.904;9.192;2022-09-09T12:40:30;23.60;98.70
16732;DHT22;8484;50.904;9.192;2022-09-09T12:43:00;22.30;99.90
16732;DHT22;8484;50.904;9.192;2022-09-09T12:45:30;22.10;99.90
16732;DHT22;8484;50.904;9.192;2022-09-09T12:48:00;22.70;99.10
16732;DHT22;8484;50.904;9.192;2022-09-09T12:50:31;23.60;98.60
16732;DHT22;8484;50.904;9.192;2022-09-09T12:53:03;23.30;97.60
16732;DHT22;8484;50.904;9.192;2022-09-09T12:55:36;23.70;98.80
16732;DHT22;8484;50.904;9.192;2022-09-09T12:58:04;23.20;99.80
16732;DHT22;8484;50.904;9.192;2022-09-09T13:00:32;22.30;99.90
16732;DHT22;8484;50.904;9.192;2022-09-09T13:03:01;22.60;99.90
16732;DHT22;8484;50.904;9.192;2022-09-09T13:05:34;23.10;98.80
16732;DHT22;8484;50.904;9.192;2022-09-09T13:08:04;23.00;99.30
16732;DHT22;8484;50.904;9.192;2022-09-09T13:10:34;23.00;99.90
16732;DHT22;8484;50.904;9.192;2022-09-09T13:13:02;23.00;99.90
16732;DHT22;8484;50.904;9.192;2022-09-09T13:15:30;22.90;99.90
16732;DHT22;8484;50.904;9.192;2022-09-09T13:17:58;23.00;99.90
16732;DHT22;8484;50.904;9.192;2022-09-09T13:20:26;22.70;99.90
16732;DHT22;8484;50.904;9.192;2022-09-09T13:22:55;23.00;99.90
16732;DHT22;8484;50.904;9.192;2022-09-09T13:25:26;23.10;99.90
16732;DHT22;8484;50.904;9.192;2022-09-09T13:27:57;22.80;99.90
16732;DHT22;8484;50.904;9.192;2022-09-09T13:30:28;22.80;99.90
16732;DHT22;8484;50.904;9.192;2022-09-09T13:33:18;22.30;99.10
16732;DHT22;8484;50.904;9.192;2022-09-09T13:35:50;22.20;99.90
16732;DHT22;8484;50.904;9.192;2022-09-09T13:38:17;22.70;99.90
16732;DHT22;8484;50.904;9.192;2022-09-09T13:40:57;22.80;99.00
16732;DHT22;8484;50.904;9.192;2022-09-09T13:43:27;22.70;99.20
16732;DHT22;8484;50.904;9.192;2022-09-09T13:45:55;22.80;99.30
16732;DHT22;8484;50.904;9.192;2022-09-09T13:48:23;22.80;98.80
16732;DHT22;8484;50.904;9.192;2022-09-09T13:50:55;22.30;98.80
16732;DHT22;8484;50.904;9.192;2022-09-09T13:53:23;22.20;99.90
16732;DHT22;8484;50.904;9.192;2022-09-09T13:55:50;22.00;99.90
16732;DHT22;8484;50.904;9.192;2022-09-09T13:58:19;21.60;99.90
16732;DHT22;8484;50.904;9.192;2022-09-09T14:00:48;22.00;99.90
16732;DHT22;8484;50.904;9.192;2022-09-09T14:03:15;21.70;99.90
16732;DHT22;8484;50.904;9.192;2022-09-09T14:05:43;22.40;99.90
16732;DHT22;8484;50.904;9.192;2022-09-09T14:08:16;22.20;99.90
16732;DHT22;8484;50.904;9.192;2022-09-09T14:10:47;22.40;99.90
16732;DHT22;8484;50.904;9.192;2022-09-09T14:13:14;22.10;99.90
16732;DHT22;8484;50.904;9.192;2022-09-09T14:15:43;22.00;99.90
16732;DHT22;8484;50.904;9.192;2022-09-09T14:18:12;22.00;99.90
16732;DHT22;8484;50.904;9.192;2022-09-09T14:20:39;21.90;99.90
16732;DHT22;8484;50.904;9.192;2022-09-09T14:23:10;22.00;99.90
16732;DHT22;8484;50.904;9.192;2022-09-09T14:25:39;21.80;99.90
16732;DHT22;8484;50.904;9.192;2022-09-09T14:28:09;21.70;99.90
16732;DHT22;8484;50.904;9.192;2022-09-09T14:30:37;21.20;99.90
16732;DHT22;8484;50.904;9.192;2022-09-09T14:33:06;21.30;99.90
16732;DHT22;8484;50.904;9.192;2022-09-09T14:35:33;21.50;99.90
16732;DHT22;8484;50.904;9.192;2022-09-09T14:38:03;21.10;99.90
16732;DHT22;8484;50.904;9.192;2022-09-09T14:40:31;20.60;99.90
16732;DHT22;8484;50.904;9.192;2022-09-09T14:42:58;20.20;99.90
16732;DHT22;8484;50.904;9.192;2022-09-09T14:45:26;20.00;99.90
16732;DHT22;8484;50.904;9.192;2022-09-09T14:47:53;19.80;99.90
16732;DHT22;8484;50.904;9.192;2022-09-09T14:50:22;19.80;99.90
16732;DHT22;8484;50.904;9.192;2022-09-09T14:52:49;20.00;99.90
16732;DHT22;8484;50.904;9.192;2022-09-09T14:55:17;20.50;99.90
16732;DHT22;8484;50.904;9.192;2022-09-09T14:57:45;20.60;99.90
16732;DHT22;8484;50.904;9.192;2022-09-09T15:00:12;21.50;99.90
16732;DHT22;8484;50.904;9.192;2022-09-09T15:02:39;21.50;99.90
16732;DHT22;8484;50.904;9.192;2022-09-09T15:05:06;20.90;99.90
16732;DHT22;8484;50.904;9.192;2022-09-09T15:07:35;21.50;99.90
16732;DHT22;8484;50.904;9.192;2022-09-09T15:10:03;21.20;99.90
16732;DHT22;8484;50.904;9.192;2022-09-09T15:12:30;21.10;99.90
16732;DHT22;8484;50.904;9.192;2022-09-09T15:14:58;21.00;99.90
16732;DHT22;8484;50.904;9.192;2022-09-09T15:17:25;20.90;99.90
16732;DHT22;8484;50.904;9.192;2022-09-09T15:19:53;21.00;99.90
16732;DHT22;8484;50.904;9.192;2022-09-09T15:22:20;20.80;99.90
16732;DHT22;8484;50.904;9.192;2022-09-09T15:24:49;20.80;99.90
16732;DHT22;8484;50.904;9.192;2022-09-09T15:27:16;21.00;99.90
16732;DHT22;8484;50.904;9.192;2022-09-09T15:29:43;21.00;99.90
16732;DHT22;8484;50.904;9.192;2022-09-09T15:32:10;20.90;99.90
16732;DHT22;8484;50.904;9.192;2022-09-09T15:34:37;21.00;99.90
16732;DHT22;8484;50.904;9.192;2022-09-09T15:37:05;20.90;99.90
16732;DHT22;8484;50.904;9.192;2022-09-09T15:39:33;20.80;99.90
16732;DHT22;8484;50.904;9.192;2022-09-09T15:42:01;20.60;99.90
16732;DHT22;8484;50.904;9.192;2022-09-09T15:44:28;20.20;99.90
16732;DHT22;8484;50.904;9.192;2022-09-09T15:46:54;20.40;99.90
16732;DHT22;8484;50.904;9.192;2022-09-09T15:49:23;20.10;99.90
16732;DHT22;8484;50.904;9.192;2022-09-09T15:51:52;19.90;99.90
16732;DHT22;8484;50.904;9.192;2022-09-09T15:54:20;20.10;99.90
16732;DHT22;8484;50.904;9.192;2022-09-09T15:56:51;20.00;99.90
16732;DHT22;8484;50.904;9.192;2022-09-09T15:59:21;19.80;99.90
16732;DHT22;8484;50.904;9.192;2022-09-09T16:01:48;19.70;99.90
16732;DHT22;8484;50.904;9.192;2022-09-09T16:04:17;19.70;99.90
16732;DHT22;8484;50.904;9.192;2022-09-09T16:06:49;19.60;99.90
16732;DHT22;8484;50.904;9.192;2022-09-09T16:09:17;19.40;99.90
16732;DHT22;8484;50.904;9.192;2022-09-09T16:11:44;19.30;99.90